sensor_id;sensor_type;location;lat;lon;timestamp;P1;durP1;ratioP1;P2;durP2;ratioP2
7495;SDS011;3789;47.064;15.482;2023-09-19T00:01:23;9.52;;;6.90;;
7495;SDS011;3789;47.064;15.482;2023-09-19T00:03:58;12.27;;;7.22;;
7495;SDS011;3789;47.064;15.482;2023-09-19T00:06:31;11.23;;;7.97;;
7495;SDS011;3789;47.064;15.482;2023-09-19T00:08:59;10.85;;;7.70;;
7495;SDS011;3789;47.064;15.482;2023-09-19T00:11:28;9.48;;;6.40;;
7495;SDS011;3789;47.064;15.482;2023-09-19T00:13:57;9.10;;;6.90;;
7495;SDS011;3789;47.064;15.482;2023-09-19T00:16:29;7.40;;;6.65;;
7495;SDS011;3789;47.064;15.482;2023-09-19T00:18:57;9.88;;;6.32;;
7495;SDS011;3789;47.064;15.482;2023-09-19T00:21:32;8.80;;;6.93;;
7495;SDS011;3789;47.064;15.482;2023-09-19T00:24:01;8.73;;;6.57;;
7495;SDS011;3789;47.064;15.482;2023-09-19T00:26:38;10.50;;;6.10;;
7495;SDS011;3789;47.064;15.482;2023-09-19T00:29:10;7.97;;;6.55;;
7495;SDS011;3789;47.064;15.482;2023-09-19T00:31:43;10.68;;;7.00;;
7495;SDS011;3789;47.064;15.482;2023-09-19T00:34:13;9.25;;;7.70;;
7495;SDS011;3789;47.064;15.482;2023-09-19T00:36:42;9.85;;;6.93;;
7495;SDS011;3789;47.064;15.482;2023-09-19T00:39:11;10.60;;;6.93;;
7495;SDS011;3789;47.064;15.482;2023-09-19T00:41:39;7.45;;;6.65;;
7495;SDS011;3789;47.064;15.482;2023-09-19T00:44:14;7.35;;;6.40;;
7495;SDS011;3789;47.064;15.482;2023-09-19T00:46:46;11.48;;;6.70;;
7495;SDS011;3789;47.064;15.482;2023-09-19T00:49:17;6.88;;;5.75;;
7495;SDS011;3789;47.064;15.482;2023-09-19T00:51:48;6.90;;;5.68;;
7495;SDS011;3789;47.064;15.482;2023-09-19T00:54:25;7.28;;;5.65;;
7495;SDS011;3789;47.064;15.482;2023-09-19T00:56:55;8.15;;;5.47;;
7495;SDS011;3789;47.064;15.482;2023-09-19T00:59:25;6.43;;;5.20;;
7495;SDS011;3789;47.064;15.482;2023-09-19T01:01:54;8.13;;;5.60;;
7495;SDS011;3789;47.064;15.482;2023-09-19T01:04:24;8.25;;;5.85;;
7495;SDS011;3789;47.064;15.482;2023-09-19T01:07:03;7.25;;;5.63;;
7495;SDS011;3789;47.064;15.482;2023-09-19T01:09:34;8.45;;;5.57;;
7495;SDS011;3789;47.064;15.482;2023-09-19T01:12:04;6.22;;;5.32;;
7495;SDS011;3789;47.064;15.482;2023-09-19T01:14:42;7.35;;;5.68;;
7495;SDS011;3789;47.064;15.482;2023-09-19T01:17:32;9.05;;;6.15;;
7495;SDS011;3789;47.064;15.482;2023-09-19T01:30:06;8.05;;;5.22;;
7495;SDS011;3789;47.064;15.482;2023-09-19T01:32:55;9.13;;;6.25;;
7495;SDS011;3789;47.064;15.482;2023-09-19T01:35:28;6.93;;;5.85;;
7495;SDS011;3789;47.064;15.482;2023-09-19T01:38:07;8.20;;;6.03;;
7495;SDS011;3789;47.064;15.482;2023-09-19T01:40:41;6.88;;;5.63;;
7495;SDS011;3789;47.064;15.482;2023-09-19T01:43:12;7.05;;;5.68;;
7495;SDS011;3789;47.064;15.482;2023-09-19T01:52:15;6.43;;;4.30;;
7495;SDS011;3789;47.064;15.482;2023-09-19T01:54:48;4.95;;;3.90;;
7495;SDS011;3789;47.064;15.482;2023-09-19T01:57:34;7.38;;;3.70;;
7495;SDS011;3789;47.064;15.482;2023-09-19T02:00:25;6.55;;;4.65;;
7495;SDS011;3789;47.064;15.482;2023-09-19T02:02:58;6.95;;;4.35;;
7495;SDS011;3789;47.064;15.482;2023-09-19T02:05:33;6.15;;;3.65;;
7495;SDS011;3789;47.064;15.482;2023-09-19T02:08:02;6.45;;;3.65;;
7495;SDS011;3789;47.064;15.482;2023-09-19T02:10:33;5.00;;;4.05;;
7495;SDS011;3789;47.064;15.482;2023-09-19T02:13:00;5.40;;;3.90;;
7495;SDS011;3789;47.064;15.482;2023-09-19T02:15:32;5.32;;;3.83;;
7495;SDS011;3789;47.064;15.482;2023-09-19T02:18:02;4.95;;;3.70;;
7495;SDS011;3789;47.064;15.482;2023-09-19T02:20:34;4.28;;;3.40;;
7495;SDS011;3789;47.064;15.482;2023-09-19T02:23:03;7.07;;;3.90;;
7495;SDS011;3789;47.064;15.482;2023-09-19T02:25:41;7.43;;;3.85;;
7495;SDS011;3789;47.064;15.482;2023-09-19T02:28:12;4.28;;;3.40;;
7495;SDS011;3789;47.064;15.482;2023-09-19T02:30:42;5.53;;;3.30;;
7495;SDS011;3789;47.064;15.482;2023-09-19T02:33:17;6.10;;;3.40;;
7495;SDS011;3789;47.064;15.482;2023-09-19T02:35:47;6.22;;;3.05;;
7495;SDS011;3789;47.064;15.482;2023-09-19T02:38:15;3.60;;;2.67;;
7495;SDS011;3789;47.064;15.482;2023-09-19T02:40:50;4.35;;;2.60;;
7495;SDS011;3789;47.064;15.482;2023-09-19T02:43:19;4.57;;;2.97;;
7495;SDS011;3789;47.064;15.482;2023-09-19T02:45:51;3.35;;;2.80;;
7495;SDS011;3789;47.064;15.482;2023-09-19T02:48:27;3.47;;;2.72;;
7495;SDS011;3789;47.064;15.482;2023-09-19T02:50:57;3.95;;;2.90;;
7495;SDS011;3789;47.064;15.482;2023-09-19T02:53:28;4.68;;;3.05;;
7495;SDS011;3789;47.064;15.482;2023-09-19T02:56:00;6.03;;;3.10;;
7495;SDS011;3789;47.064;15.482;2023-09-19T02:58:31;5.97;;;2.85;;
7495;SDS011;3789;47.064;15.482;2023-09-19T03:01:12;3.50;;;2.58;;
7495;SDS011;3789;47.064;15.482;2023-09-19T03:03:42;3.70;;;2.75;;
7495;SDS011;3789;47.064;15.482;2023-09-19T03:06:11;4.18;;;2.72;;
7495;SDS011;3789;47.064;15.482;2023-09-19T03:08:45;3.40;;;2.75;;
7495;SDS011;3789;47.064;15.482;2023-09-19T03:11:34;3.60;;;2.70;;
7495;SDS011;3789;47.064;15.482;2023-09-19T03:14:02;3.58;;;2.65;;
7495;SDS011;3789;47.064;15.482;2023-09-19T03:16:32;2.85;;;2.47;;
7495;SDS011;3789;47.064;15.482;2023-09-19T03:19:05;3.13;;;2.60;;
7495;SDS011;3789;47.064;15.482;2023-09-19T03:21:36;3.30;;;2.55;;
7495;SDS011;3789;47.064;15.482;2023-09-19T03:24:06;5.03;;;2.33;;
7495;SDS011;3789;47.064;15.482;2023-09-19T03:26:35;2.47;;;2.13;;
7495;SDS011;3789;47.064;15.482;2023-09-19T03:29:04;3.90;;;2.20;;
7495;SDS011;3789;47.064;15.482;2023-09-19T03:31:34;3.20;;;1.98;;
7495;SDS011;3789;47.064;15.482;2023-09-19T03:34:05;2.25;;;1.50;;
7495;SDS011;3789;47.064;15.482;2023-09-19T03:36:36;1.77;;;1.60;;
7495;SDS011;3789;47.064;15.482;2023-09-19T03:39:05;1.80;;;1.60;;
7495;SDS011;3789;47.064;15.482;2023-09-19T03:41:35;1.90;;;1.65;;
7495;SDS011;3789;47.064;15.482;2023-09-19T03:44:04;3.05;;;1.85;;
7495;SDS011;3789;47.064;15.482;2023-09-19T03:46:34;1.85;;;1.30;;
7495;SDS011;3789;47.064;15.482;2023-09-19T03:49:03;4.25;;;1.58;;
7495;SDS011;3789;47.064;15.482;2023-09-19T03:51:33;1.50;;;1.40;;
7495;SDS011;3789;47.064;15.482;2023-09-19T03:54:02;1.38;;;1.27;;
7495;SDS011;3789;47.064;15.482;2023-09-19T03:56:32;2.22;;;1.45;;
7495;SDS011;3789;47.064;15.482;2023-09-19T03:59:02;1.58;;;1.20;;
7495;SDS011;3789;47.064;15.482;2023-09-19T04:01:30;2.85;;;1.52;;
7495;SDS011;3789;47.064;15.482;2023-09-19T04:03:59;1.67;;;1.40;;
7495;SDS011;3789;47.064;15.482;2023-09-19T04:06:45;2.53;;;1.30;;
7495;SDS011;3789;47.064;15.482;2023-09-19T04:09:21;2.20;;;1.40;;
7495;SDS011;3789;47.064;15.482;2023-09-19T04:11:51;1.30;;;1.20;;
7495;SDS011;3789;47.064;15.482;2023-09-19T04:14:19;2.05;;;1.40;;
7495;SDS011;3789;47.064;15.482;2023-09-19T04:16:58;2.63;;;1.30;;
7495;SDS011;3789;47.064;15.482;2023-09-19T04:19:38;1.40;;;1.30;;
7495;SDS011;3789;47.064;15.482;2023-09-19T04:22:10;3.40;;;1.30;;
7495;SDS011;3789;47.064;15.482;2023-09-19T04:24:50;2.30;;;1.75;;
7495;SDS011;3789;47.064;15.482;2023-09-19T04:27:18;1.52;;;1.30;;
7495;SDS011;3789;47.064;15.482;2023-09-19T04:29:46;2.38;;;1.30;;
7495;SDS011;3789;47.064;15.482;2023-09-19T04:32:28;1.98;;;1.48;;
7495;SDS011;3789;47.064;15.482;2023-09-19T04:35:00;1.92;;;1.30;;
7495;SDS011;3789;47.064;15.482;2023-09-19T04:37:33;2.25;;;1.55;;
7495;SDS011;3789;47.064;15.482;2023-09-19T04:40:09;2.20;;;1.45;;
7495;SDS011;3789;47.064;15.482;2023-09-19T04:42:52;1.52;;;1.25;;
7495;SDS011;3789;47.064;15.482;2023-09-19T04:45:26;1.55;;;1.40;;
7495;SDS011;3789;47.064;15.482;2023-09-19T04:47:58;2.50;;;1.40;;
7495;SDS011;3789;47.064;15.482;2023-09-19T04:50:27;2.20;;;1.50;;
7495;SDS011;3789;47.064;15.482;2023-09-19T04:52:58;2.08;;;1.70;;
7495;SDS011;3789;47.064;15.482;2023-09-19T04:55:31;3.67;;;1.50;;
7495;SDS011;3789;47.064;15.482;2023-09-19T04:58:02;2.47;;;1.50;;
7495;SDS011;3789;47.064;15.482;2023-09-19T05:00:32;3.17;;;1.50;;
7495;SDS011;3789;47.064;15.482;2023-09-19T05:03:03;2.00;;;1.48;;
7495;SDS011;3789;47.064;15.482;2023-09-19T05:05:40;1.58;;;1.48;;
7495;SDS011;3789;47.064;15.482;2023-09-19T05:08:17;1.40;;;1.25;;
7495;SDS011;3789;47.064;15.482;2023-09-19T05:10:53;1.80;;;1.35;;
7495;SDS011;3789;47.064;15.482;2023-09-19T05:13:24;2.40;;;1.40;;
7495;SDS011;3789;47.064;15.482;2023-09-19T05:15:52;1.90;;;1.30;;
7495;SDS011;3789;47.064;15.482;2023-09-19T05:18:21;1.55;;;1.40;;
7495;SDS011;3789;47.064;15.482;2023-09-19T05:20:50;1.70;;;1.40;;
7495;SDS011;3789;47.064;15.482;2023-09-19T05:23:19;2.30;;;1.40;;
7495;SDS011;3789;47.064;15.482;2023-09-19T05:25:49;2.50;;;1.63;;
7495;SDS011;3789;47.064;15.482;2023-09-19T05:28:19;1.70;;;1.50;;
7495;SDS011;3789;47.064;15.482;2023-09-19T05:31:01;2.90;;;1.77;;
7495;SDS011;3789;47.064;15.482;2023-09-19T05:33:29;2.25;;;1.75;;
7495;SDS011;3789;47.064;15.482;2023-09-19T05:36:02;1.98;;;1.50;;
7495;SDS011;3789;47.064;15.482;2023-09-19T05:38:32;2.05;;;1.60;;
7495;SDS011;3789;47.064;15.482;2023-09-19T05:41:05;3.13;;;1.60;;
7495;SDS011;3789;47.064;15.482;2023-09-19T05:43:39;4.88;;;1.75;;
7495;SDS011;3789;47.064;15.482;2023-09-19T05:46:10;3.22;;;1.77;;
7495;SDS011;3789;47.064;15.482;2023-09-19T05:48:39;2.38;;;1.48;;
7495;SDS011;3789;47.064;15.482;2023-09-19T05:51:09;2.55;;;1.42;;
7495;SDS011;3789;47.064;15.482;2023-09-19T05:53:43;2.65;;;1.45;;
7495;SDS011;3789;47.064;15.482;2023-09-19T05:56:13;1.90;;;1.60;;
7495;SDS011;3789;47.064;15.482;2023-09-19T05:58:48;2.65;;;1.52;;
7495;SDS011;3789;47.064;15.482;2023-09-19T06:01:22;1.70;;;1.50;;
7495;SDS011;3789;47.064;15.482;2023-09-19T06:03:53;3.03;;;1.55;;
7495;SDS011;3789;47.064;15.482;2023-09-19T06:06:33;8.63;;;2.33;;
7495;SDS011;3789;47.064;15.482;2023-09-19T06:09:07;3.50;;;1.95;;
7495;SDS011;3789;47.064;15.482;2023-09-19T06:11:42;1.92;;;1.60;;
7495;SDS011;3789;47.064;15.482;2023-09-19T06:14:10;3.10;;;1.60;;
7495;SDS011;3789;47.064;15.482;2023-09-19T06:16:40;2.03;;;1.63;;
7495;SDS011;3789;47.064;15.482;2023-09-19T06:19:10;3.47;;;1.70;;
7495;SDS011;3789;47.064;15.482;2023-09-19T06:21:39;3.17;;;2.13;;
7495;SDS011;3789;47.064;15.482;2023-09-19T06:24:10;2.97;;;1.85;;
7495;SDS011;3789;47.064;15.482;2023-09-19T06:26:40;4.60;;;2.05;;
7495;SDS011;3789;47.064;15.482;2023-09-19T06:29:09;3.13;;;2.28;;
7495;SDS011;3789;47.064;15.482;2023-09-19T06:31:38;2.25;;;2.05;;
7495;SDS011;3789;47.064;15.482;2023-09-19T06:34:15;3.47;;;2.03;;
7495;SDS011;3789;47.064;15.482;2023-09-19T06:36:54;4.78;;;2.47;;
7495;SDS011;3789;47.064;15.482;2023-09-19T06:39:31;3.30;;;2.10;;
7495;SDS011;3789;47.064;15.482;2023-09-19T06:42:02;3.25;;;2.13;;
7495;SDS011;3789;47.064;15.482;2023-09-19T06:44:33;5.15;;;2.47;;
7495;SDS011;3789;47.064;15.482;2023-09-19T06:47:01;4.75;;;2.47;;
7495;SDS011;3789;47.064;15.482;2023-09-19T06:49:30;4.00;;;2.50;;
7495;SDS011;3789;47.064;15.482;2023-09-19T06:52:00;3.22;;;2.63;;
7495;SDS011;3789;47.064;15.482;2023-09-19T06:54:29;4.45;;;2.72;;
7495;SDS011;3789;47.064;15.482;2023-09-19T06:57:05;5.22;;;2.78;;
7495;SDS011;3789;47.064;15.482;2023-09-19T06:59:37;4.25;;;2.50;;
7495;SDS011;3789;47.064;15.482;2023-09-19T07:02:06;6.53;;;3.20;;
7495;SDS011;3789;47.064;15.482;2023-09-19T07:04:38;3.70;;;2.95;;
7495;SDS011;3789;47.064;15.482;2023-09-19T07:07:08;2.70;;;2.50;;
7495;SDS011;3789;47.064;15.482;2023-09-19T07:09:37;5.18;;;2.85;;
7495;SDS011;3789;47.064;15.482;2023-09-19T07:12:06;4.75;;;3.20;;
7495;SDS011;3789;47.064;15.482;2023-09-19T07:14:45;3.97;;;2.72;;
7495;SDS011;3789;47.064;15.482;2023-09-19T07:17:15;7.93;;;2.78;;
7495;SDS011;3789;47.064;15.482;2023-09-19T07:19:45;4.97;;;2.97;;
7495;SDS011;3789;47.064;15.482;2023-09-19T07:22:26;6.38;;;3.25;;
7495;SDS011;3789;47.064;15.482;2023-09-19T07:24:55;5.13;;;2.95;;
7495;SDS011;3789;47.064;15.482;2023-09-19T07:27:26;3.60;;;3.13;;
7495;SDS011;3789;47.064;15.482;2023-09-19T07:29:59;4.45;;;3.00;;
7495;SDS011;3789;47.064;15.482;2023-09-19T07:32:28;3.08;;;2.70;;
7495;SDS011;3789;47.064;15.482;2023-09-19T07:35:02;3.85;;;2.78;;
7495;SDS011;3789;47.064;15.482;2023-09-19T07:37:40;4.35;;;2.58;;
7495;SDS011;3789;47.064;15.482;2023-09-19T07:40:10;3.60;;;2.90;;
7495;SDS011;3789;47.064;15.482;2023-09-19T07:42:40;3.85;;;2.55;;
7495;SDS011;3789;47.064;15.482;2023-09-19T07:45:14;4.80;;;2.85;;
7495;SDS011;3789;47.064;15.482;2023-09-19T07:47:45;4.75;;;3.08;;
7495;SDS011;3789;47.064;15.482;2023-09-19T07:50:19;4.75;;;3.15;;
7495;SDS011;3789;47.064;15.482;2023-09-19T07:52:51;4.75;;;2.78;;
7495;SDS011;3789;47.064;15.482;2023-09-19T07:55:25;4.95;;;2.92;;
7495;SDS011;3789;47.064;15.482;2023-09-19T07:57:54;4.10;;;3.08;;
7495;SDS011;3789;47.064;15.482;2023-09-19T08:00:21;4.50;;;3.40;;
7495;SDS011;3789;47.064;15.482;2023-09-19T08:02:50;4.45;;;3.38;;
7495;SDS011;3789;47.064;15.482;2023-09-19T08:05:34;5.88;;;3.53;;
7495;SDS011;3789;47.064;15.482;2023-09-19T08:08:22;4.85;;;3.50;;
7495;SDS011;3789;47.064;15.482;2023-09-19T08:11:39;3.92;;;2.63;;
7495;SDS011;3789;47.064;15.482;2023-09-19T08:14:30;4.05;;;2.38;;
7495;SDS011;3789;47.064;15.482;2023-09-19T08:17:19;4.60;;;2.97;;
7495;SDS011;3789;47.064;15.482;2023-09-19T08:19:51;3.78;;;2.85;;
7495;SDS011;3789;47.064;15.482;2023-09-19T08:22:38;4.28;;;2.83;;
7495;SDS011;3789;47.064;15.482;2023-09-19T08:25:38;3.20;;;2.60;;
7495;SDS011;3789;47.064;15.482;2023-09-19T08:28:23;5.47;;;3.10;;
7495;SDS011;3789;47.064;15.482;2023-09-19T08:31:15;4.82;;;3.20;;
7495;SDS011;3789;47.064;15.482;2023-09-19T08:37:16;4.95;;;3.30;;
7495;SDS011;3789;47.064;15.482;2023-09-19T08:40:00;3.95;;;3.42;;
7495;SDS011;3789;47.064;15.482;2023-09-19T08:45:41;4.07;;;2.90;;
7495;SDS011;3789;47.064;15.482;2023-09-19T08:49:12;4.13;;;3.40;;
7495;SDS011;3789;47.064;15.482;2023-09-19T08:52:45;4.88;;;3.03;;
7495;SDS011;3789;47.064;15.482;2023-09-19T08:55:19;4.45;;;3.00;;
7495;SDS011;3789;47.064;15.482;2023-09-19T08:57:51;3.47;;;2.88;;
7495;SDS011;3789;47.064;15.482;2023-09-19T09:00:30;2.85;;;2.15;;
7495;SDS011;3789;47.064;15.482;2023-09-19T09:03:03;3.28;;;2.75;;
7495;SDS011;3789;47.064;15.482;2023-09-19T09:05:51;4.07;;;2.58;;
7495;SDS011;3789;47.064;15.482;2023-09-19T09:08:23;3.35;;;2.55;;
7495;SDS011;3789;47.064;15.482;2023-09-19T09:10:53;3.05;;;2.35;;
7495;SDS011;3789;47.064;15.482;2023-09-19T09:13:26;3.30;;;2.65;;
7495;SDS011;3789;47.064;15.482;2023-09-19T09:15:59;3.40;;;2.75;;
7495;SDS011;3789;47.064;15.482;2023-09-19T09:18:37;2.72;;;2.20;;
7495;SDS011;3789;47.064;15.482;2023-09-19T09:21:12;4.53;;;2.72;;
7495;SDS011;3789;47.064;15.482;2023-09-19T09:23:44;3.25;;;2.28;;
7495;SDS011;3789;47.064;15.482;2023-09-19T09:26:16;3.30;;;2.40;;
7495;SDS011;3789;47.064;15.482;2023-09-19T09:28:51;3.72;;;2.17;;
7495;SDS011;3789;47.064;15.482;2023-09-19T09:31:24;2.88;;;2.20;;
7495;SDS011;3789;47.064;15.482;2023-09-19T09:33:57;4.95;;;2.35;;
7495;SDS011;3789;47.064;15.482;2023-09-19T09:36:36;2.58;;;2.38;;
7495;SDS011;3789;47.064;15.482;2023-09-19T09:39:10;4.43;;;2.40;;
7495;SDS011;3789;47.064;15.482;2023-09-19T09:41:53;2.40;;;2.10;;
7495;SDS011;3789;47.064;15.482;2023-09-19T09:44:21;2.83;;;2.33;;
7495;SDS011;3789;47.064;15.482;2023-09-19T09:46:58;1.98;;;1.88;;
7495;SDS011;3789;47.064;15.482;2023-09-19T09:49:48;2.30;;;1.70;;
7495;SDS011;3789;47.064;15.482;2023-09-19T09:52:23;2.00;;;1.75;;
7495;SDS011;3789;47.064;15.482;2023-09-19T09:55:02;2.35;;;1.60;;
7495;SDS011;3789;47.064;15.482;2023-09-19T09:57:36;2.00;;;1.75;;
7495;SDS011;3789;47.064;15.482;2023-09-19T10:00:09;3.50;;;2.08;;
7495;SDS011;3789;47.064;15.482;2023-09-19T10:02:38;2.35;;;1.95;;
7495;SDS011;3789;47.064;15.482;2023-09-19T10:05:16;2.30;;;1.70;;
7495;SDS011;3789;47.064;15.482;2023-09-19T10:07:58;2.55;;;2.08;;
7495;SDS011;3789;47.064;15.482;2023-09-19T10:10:50;2.20;;;1.67;;
7495;SDS011;3789;47.064;15.482;2023-09-19T10:13:40;3.63;;;1.90;;
7495;SDS011;3789;47.064;15.482;2023-09-19T10:16:15;3.72;;;2.10;;
7495;SDS011;3789;47.064;15.482;2023-09-19T10:18:47;3.58;;;2.38;;
7495;SDS011;3789;47.064;15.482;2023-09-19T10:21:20;2.72;;;1.98;;
7495;SDS011;3789;47.064;15.482;2023-09-19T10:23:52;2.13;;;1.92;;
7495;SDS011;3789;47.064;15.482;2023-09-19T10:26:30;2.42;;;1.70;;
7495;SDS011;3789;47.064;15.482;2023-09-19T10:29:13;1.92;;;1.73;;
7495;SDS011;3789;47.064;15.482;2023-09-19T10:31:42;1.90;;;1.50;;
7495;SDS011;3789;47.064;15.482;2023-09-19T10:34:18;2.22;;;1.58;;
7495;SDS011;3789;47.064;15.482;2023-09-19T10:36:52;1.90;;;1.30;;
7495;SDS011;3789;47.064;15.482;2023-09-19T10:39:22;1.63;;;1.52;;
7495;SDS011;3789;47.064;15.482;2023-09-19T10:41:53;1.50;;;1.30;;
7495;SDS011;3789;47.064;15.482;2023-09-19T10:44:26;2.28;;;1.40;;
7495;SDS011;3789;47.064;15.482;2023-09-19T10:46:58;1.45;;;1.10;;
7495;SDS011;3789;47.064;15.482;2023-09-19T10:49:28;2.00;;;1.33;;
7495;SDS011;3789;47.064;15.482;2023-09-19T10:52:18;2.63;;;1.50;;
7495;SDS011;3789;47.064;15.482;2023-09-19T10:54:54;1.38;;;1.10;;
7495;SDS011;3789;47.064;15.482;2023-09-19T10:57:29;2.60;;;1.48;;
7495;SDS011;3789;47.064;15.482;2023-09-19T11:00:03;1.52;;;1.42;;
7495;SDS011;3789;47.064;15.482;2023-09-19T11:09:01;2.30;;;1.52;;
7495;SDS011;3789;47.064;15.482;2023-09-19T11:11:51;1.65;;;1.38;;
7495;SDS011;3789;47.064;15.482;2023-09-19T11:14:30;2.30;;;1.63;;
7495;SDS011;3789;47.064;15.482;2023-09-19T11:17:37;1.30;;;1.20;;
7495;SDS011;3789;47.064;15.482;2023-09-19T11:20:16;2.15;;;1.45;;
7495;SDS011;3789;47.064;15.482;2023-09-19T11:23:19;1.92;;;1.10;;
7495;SDS011;3789;47.064;15.482;2023-09-19T11:25:51;2.88;;;1.30;;
7495;SDS011;3789;47.064;15.482;2023-09-19T11:28:30;1.90;;;1.40;;
7495;SDS011;3789;47.064;15.482;2023-09-19T11:31:41;1.75;;;1.23;;
7495;SDS011;3789;47.064;15.482;2023-09-19T11:42:48;2.78;;;1.40;;
7495;SDS011;3789;47.064;15.482;2023-09-19T11:48:18;1.98;;;1.50;;
7495;SDS011;3789;47.064;15.482;2023-09-19T11:50:48;2.13;;;1.50;;
7495;SDS011;3789;47.064;15.482;2023-09-19T11:53:18;2.20;;;1.70;;
7495;SDS011;3789;47.064;15.482;2023-09-19T11:55:47;1.63;;;1.52;;
7495;SDS011;3789;47.064;15.482;2023-09-19T11:58:17;1.70;;;1.48;;
7495;SDS011;3789;47.064;15.482;2023-09-19T12:00:56;2.22;;;1.73;;
7495;SDS011;3789;47.064;15.482;2023-09-19T12:03:29;1.95;;;1.30;;
7495;SDS011;3789;47.064;15.482;2023-09-19T12:06:12;1.60;;;1.50;;
7495;SDS011;3789;47.064;15.482;2023-09-19T12:08:45;2.08;;;1.38;;
7495;SDS011;3789;47.064;15.482;2023-09-19T12:11:16;2.80;;;1.50;;
7495;SDS011;3789;47.064;15.482;2023-09-19T12:13:47;2.65;;;1.70;;
7495;SDS011;3789;47.064;15.482;2023-09-19T12:16:24;1.95;;;1.40;;
7495;SDS011;3789;47.064;15.482;2023-09-19T12:18:53;1.80;;;1.60;;
7495;SDS011;3789;47.064;15.482;2023-09-19T12:21:32;1.90;;;1.48;;
7495;SDS011;3789;47.064;15.482;2023-09-19T12:24:15;2.15;;;1.50;;
7495;SDS011;3789;47.064;15.482;2023-09-19T12:26:46;1.85;;;1.60;;
7495;SDS011;3789;47.064;15.482;2023-09-19T12:29:20;2.95;;;1.30;;
7495;SDS011;3789;47.064;15.482;2023-09-19T12:31:51;1.50;;;1.40;;
7495;SDS011;3789;47.064;15.482;2023-09-19T12:34:33;1.70;;;1.27;;
7495;SDS011;3789;47.064;15.482;2023-09-19T12:37:10;2.33;;;1.30;;
7495;SDS011;3789;47.064;15.482;2023-09-19T12:39:43;1.50;;;1.40;;
7495;SDS011;3789;47.064;15.482;2023-09-19T12:42:21;2.10;;;1.40;;
7495;SDS011;3789;47.064;15.482;2023-09-19T12:44:59;1.52;;;1.42;;
7495;SDS011;3789;47.064;15.482;2023-09-19T12:47:29;1.42;;;1.33;;
7495;SDS011;3789;47.064;15.482;2023-09-19T12:50:15;1.73;;;1.30;;
7495;SDS011;3789;47.064;15.482;2023-09-19T12:52:52;1.63;;;1.40;;
7495;SDS011;3789;47.064;15.482;2023-09-19T12:55:28;2.85;;;1.40;;
7495;SDS011;3789;47.064;15.482;2023-09-19T12:58:21;3.33;;;1.48;;
7495;SDS011;3789;47.064;15.482;2023-09-19T13:00:52;2.17;;;1.65;;
7495;SDS011;3789;47.064;15.482;2023-09-19T13:03:25;2.83;;;1.60;;
7495;SDS011;3789;47.064;15.482;2023-09-19T13:06:06;2.17;;;1.60;;
7495;SDS011;3789;47.064;15.482;2023-09-19T13:08:38;2.45;;;1.60;;
7495;SDS011;3789;47.064;15.482;2023-09-19T13:14:23;2.03;;;1.75;;
7495;SDS011;3789;47.064;15.482;2023-09-19T13:17:09;1.83;;;1.35;;
7495;SDS011;3789;47.064;15.482;2023-09-19T13:19:51;1.63;;;1.52;;
7495;SDS011;3789;47.064;15.482;2023-09-19T13:25:42;1.60;;;1.50;;
7495;SDS011;3789;47.064;15.482;2023-09-19T13:28:30;2.13;;;1.52;;
7495;SDS011;3789;47.064;15.482;2023-09-19T13:31:00;2.22;;;1.75;;
7495;SDS011;3789;47.064;15.482;2023-09-19T13:33:48;2.42;;;1.42;;
7495;SDS011;3789;47.064;15.482;2023-09-19T13:36:37;3.50;;;1.50;;
7495;SDS011;3789;47.064;15.482;2023-09-19T13:39:06;1.80;;;1.50;;
7495;SDS011;3789;47.064;15.482;2023-09-19T13:41:46;2.42;;;1.60;;
7495;SDS011;3789;47.064;15.482;2023-09-19T13:44:24;4.45;;;1.60;;
7495;SDS011;3789;47.064;15.482;2023-09-19T13:46:54;2.80;;;1.52;;
7495;SDS011;3789;47.064;15.482;2023-09-19T13:49:26;2.22;;;1.98;;
7495;SDS011;3789;47.064;15.482;2023-09-19T13:51:57;2.47;;;1.65;;
7495;SDS011;3789;47.064;15.482;2023-09-19T13:54:33;2.35;;;1.60;;
7495;SDS011;3789;47.064;15.482;2023-09-19T13:57:04;2.10;;;1.55;;
7495;SDS011;3789;47.064;15.482;2023-09-19T13:59:38;3.00;;;1.75;;
7495;SDS011;3789;47.064;15.482;2023-09-19T14:02:07;2.40;;;1.70;;
7495;SDS011;3789;47.064;15.482;2023-09-19T14:04:36;2.38;;;1.40;;
7495;SDS011;3789;47.064;15.482;2023-09-19T14:07:05;1.90;;;1.48;;
7495;SDS011;3789;47.064;15.482;2023-09-19T14:09:43;1.95;;;1.35;;
7495;SDS011;3789;47.064;15.482;2023-09-19T14:12:16;2.72;;;1.80;;
7495;SDS011;3789;47.064;15.482;2023-09-19T14:14:54;3.72;;;1.70;;
7495;SDS011;3789;47.064;15.482;2023-09-19T14:17:28;2.28;;;1.50;;
7495;SDS011;3789;47.064;15.482;2023-09-19T14:19:57;3.25;;;2.00;;
7495;SDS011;3789;47.064;15.482;2023-09-19T14:22:29;2.53;;;1.70;;
7495;SDS011;3789;47.064;15.482;2023-09-19T14:28:09;1.65;;;1.55;;
7495;SDS011;3789;47.064;15.482;2023-09-19T14:30:56;1.85;;;1.60;;
7495;SDS011;3789;47.064;15.482;2023-09-19T14:33:24;4.30;;;2.30;;
7495;SDS011;3789;47.064;15.482;2023-09-19T14:36:04;2.00;;;1.80;;
7495;SDS011;3789;47.064;15.482;2023-09-19T14:38:42;1.40;;;1.30;;
7495;SDS011;3789;47.064;15.482;2023-09-19T14:41:12;1.40;;;1.30;;
7495;SDS011;3789;47.064;15.482;2023-09-19T14:43:42;3.22;;;1.70;;
7495;SDS011;3789;47.064;15.482;2023-09-19T14:46:12;3.78;;;1.55;;
7495;SDS011;3789;47.064;15.482;2023-09-19T14:48:46;2.20;;;1.40;;
7495;SDS011;3789;47.064;15.482;2023-09-19T14:51:20;3.30;;;1.70;;
7495;SDS011;3789;47.064;15.482;2023-09-19T14:53:57;3.33;;;1.83;;
7495;SDS011;3789;47.064;15.482;2023-09-19T14:56:26;4.03;;;1.50;;
7495;SDS011;3789;47.064;15.482;2023-09-19T14:59:00;2.25;;;1.80;;
7495;SDS011;3789;47.064;15.482;2023-09-19T15:01:32;1.70;;;1.50;;
7495;SDS011;3789;47.064;15.482;2023-09-19T15:04:09;2.90;;;1.60;;
7495;SDS011;3789;47.064;15.482;2023-09-19T15:06:38;2.15;;;1.60;;
7495;SDS011;3789;47.064;15.482;2023-09-19T15:09:07;3.15;;;1.95;;
7495;SDS011;3789;47.064;15.482;2023-09-19T15:11:37;2.03;;;1.70;;
7495;SDS011;3789;47.064;15.482;2023-09-19T15:14:13;3.63;;;1.70;;
7495;SDS011;3789;47.064;15.482;2023-09-19T15:16:44;3.13;;;1.52;;
7495;SDS011;3789;47.064;15.482;2023-09-19T15:19:14;2.58;;;1.60;;
7495;SDS011;3789;47.064;15.482;2023-09-19T15:21:48;2.55;;;1.63;;
7495;SDS011;3789;47.064;15.482;2023-09-19T15:24:17;4.55;;;1.40;;
7495;SDS011;3789;47.064;15.482;2023-09-19T15:26:57;1.67;;;1.58;;
7495;SDS011;3789;47.064;15.482;2023-09-19T15:29:25;3.58;;;1.65;;
7495;SDS011;3789;47.064;15.482;2023-09-19T15:31:55;2.35;;;1.70;;
7495;SDS011;3789;47.064;15.482;2023-09-19T15:34:29;1.55;;;1.45;;
7495;SDS011;3789;47.064;15.482;2023-09-19T15:36:58;1.77;;;1.50;;
7495;SDS011;3789;47.064;15.482;2023-09-19T15:39:32;1.55;;;1.38;;
7495;SDS011;3789;47.064;15.482;2023-09-19T15:42:09;1.75;;;1.50;;
7495;SDS011;3789;47.064;15.482;2023-09-19T15:44:39;3.50;;;1.60;;
7495;SDS011;3789;47.064;15.482;2023-09-19T15:47:16;2.63;;;1.80;;
7495;SDS011;3789;47.064;15.482;2023-09-19T15:49:47;1.83;;;1.70;;
7495;SDS011;3789;47.064;15.482;2023-09-19T15:52:17;1.50;;;1.40;;
7495;SDS011;3789;47.064;15.482;2023-09-19T15:54:54;2.17;;;1.83;;
7495;SDS011;3789;47.064;15.482;2023-09-19T15:57:27;1.92;;;1.50;;
7495;SDS011;3789;47.064;15.482;2023-09-19T16:00:02;1.80;;;1.40;;
7495;SDS011;3789;47.064;15.482;2023-09-19T16:02:37;1.73;;;1.48;;
7495;SDS011;3789;47.064;15.482;2023-09-19T16:05:06;1.80;;;1.50;;
7495;SDS011;3789;47.064;15.482;2023-09-19T16:07:51;2.85;;;1.63;;
7495;SDS011;3789;47.064;15.482;2023-09-19T16:10:23;2.70;;;1.58;;
7495;SDS011;3789;47.064;15.482;2023-09-19T16:13:01;2.42;;;1.77;;
7495;SDS011;3789;47.064;15.482;2023-09-19T16:15:32;2.17;;;1.52;;
7495;SDS011;3789;47.064;15.482;2023-09-19T16:18:09;2.55;;;1.65;;
7495;SDS011;3789;47.064;15.482;2023-09-19T16:20:38;2.72;;;1.60;;
7495;SDS011;3789;47.064;15.482;2023-09-19T16:23:11;3.00;;;1.88;;
7495;SDS011;3789;47.064;15.482;2023-09-19T16:25:41;1.88;;;1.77;;
7495;SDS011;3789;47.064;15.482;2023-09-19T16:28:11;3.15;;;2.00;;
7495;SDS011;3789;47.064;15.482;2023-09-19T16:30:39;2.15;;;1.83;;
7495;SDS011;3789;47.064;15.482;2023-09-19T16:33:10;2.58;;;1.80;;
7495;SDS011;3789;47.064;15.482;2023-09-19T16:35:42;2.70;;;2.00;;